Terminal Aerodrome Forecast
Issued by NWS

Home | Current Version | Previous Version | Text Only | Print | Product List | Glossary On
Versions: 1 2 3 4 5 6 7 8 9 10 11 12 13 14 15
000
FTUS46 KPDT 191700
TAFBDN
TAF
KBDN 191736Z 1918/2018 23015G23KT P6SM SCT080 SCT100
     FM192000 30019G29KT P6SM BKN060
     FM200200 32012G19KT P6SM SCT050
     FM200400 VRB06KT P6SM SKC=

USA.gov is the U.S. government's official web portal to all federal, state and local government web resources and services.